Newbrook, Canada
Current Conditions -  °F | °C
As of 6:43 PM on Thursday 18 Dec 2014 (Local Time) from CYED Reporting Station
Overcast Overcast  
Wind Chill: 10°   Ceiling: 300
Heat Index: 10°   Visibility: 0.12mi
Dew Point:   Wind: 3mph
Humidity: 85%   Direction: 50°NE
Pressure: 29.83"   Gusts: NA
Location:  54.33°N, 112.95°W
Report Text: CYED 190143Z AUTO 05003KT 1/8SM OVC003 OVC009 M12/M14 A2983 RMK ICG
Loading
Personal Weather Stations






























Interactive Weather Map New forecast layout! Learn more

10-Day Weather Forecast

Advertisements
Track Severe Weather on mobile